Time;durP1;ratioP1;P1;durP2;ratioP2;P2;SDS_P1;SDS_P2;PMS_P1;PMS_P2;Temp;Humidity;BMP_temperature;BMP_pressure;BME280_temperature;BME280_humidity;BME280_pressure;Samples;Min_cycle;Max_cycle;Signal;HPM_P1;HPM_P2
2022/05/21 00:01:35;;;;;;;3.40;1.52;;;;;;;20.73;57.17;97506.47;10075744;29;20044;-74
2022/05/21 00:06:57;;;;;;;5.07;2.00;;;;;;;20.65;57.17;97518.34;10070698;29;20096;-74
2022/05/21 00:12:18;;;;;;;4.72;1.98;;;;;;;20.59;57.62;97512.53;10058141;29;20049;-74
2022/05/21 00:17:39;;;;;;;5.50;1.92;;;;;;;20.46;57.97;97520.03;10070824;29;20048;-74
2022/05/21 00:23:31;;;;;;;5.40;1.60;;;;;;;20.39;58.25;97534.69;10078311;29;20060;-74
2022/05/21 00:28:52;;;;;;;8.00;2.27;;;;;;;20.38;58.40;97547.41;10067147;29;20461;-74
2022/05/21 00:34:13;;;;;;;5.03;2.22;;;;;;;20.28;58.46;97553.53;10065185;29;20098;-74
2022/05/21 00:39:33;;;;;;;6.85;1.92;;;;;;;20.20;59.01;97558.97;10064684;29;20048;-74
2022/05/21 00:44:54;;;;;;;6.22;2.22;;;;;;;20.06;59.47;97570.63;10039273;29;20504;-74
2022/05/21 00:50:16;;;;;;;7.30;1.80;;;;;;;19.95;59.72;97575.31;10038892;29;20499;-74
2022/05/21 00:55:36;;;;;;;7.57;2.00;;;;;;;19.90;60.18;97576.59;10026277;29;20485;-74
2022/05/21 01:00:57;;;;;;;6.28;2.15;;;;;;;19.85;60.68;97582.78;10038553;29;20045;-74
2022/05/21 01:06:18;;;;;;;9.35;2.30;;;;;;;19.90;60.88;97590.03;10038695;29;20045;-74
2022/05/21 01:11:39;;;;;;;9.23;2.28;;;;;;;20.00;61.13;97605.22;10025636;29;20113;-74
2022/05/21 01:17:01;;;;;;;4.68;2.20;;;;;;;20.19;61.28;97626.28;10025695;29;20048;-75
2022/05/21 01:22:26;;;;;;;8.90;2.75;;;;;;;20.33;61.22;97637.28;10038459;29;20125;-74
2022/05/21 01:27:49;;;;;;;5.10;2.30;;;;;;;20.40;60.97;97649.50;10037825;29;20045;-75
2022/05/21 01:33:11;;;;;;;5.95;2.50;;;;;;;20.41;61.25;97665.13;10023862;29;20445;-74
2022/05/21 01:38:33;;;;;;;6.25;2.08;;;;;;;20.42;61.45;97681.47;10024742;29;20049;-74
2022/05/21 01:49:33;;;;;;;7.72;2.88;;;;;;;20.37;61.42;97699.03;10029078;29;20046;-74
2022/05/21 01:54:54;;;;;;;6.47;2.10;;;;;;;20.13;61.72;97713.94;10023817;29;20050;-74
2022/05/21 02:00:15;;;;;;;5.22;2.03;;;;;;;20.09;61.87;97711.00;10010219;29;20109;-74
2022/05/21 02:05:36;;;;;;;4.38;1.70;;;;;;;20.02;61.44;97732.75;9983237;29;20046;-76
2022/05/21 02:10:57;;;;;;;6.65;1.30;;;;;;;19.97;60.66;97730.44;9984534;29;20046;-74
2022/05/21 02:16:17;;;;;;;3.90;0.95;;;;;;;19.93;59.93;97736.00;9985196;29;20054;-74
2022/05/21 02:21:40;;;;;;;1.80;0.80;;;;;;;19.73;59.51;97736.81;9996892;29;20115;-74
2022/05/21 02:27:02;;;;;;;3.90;0.90;;;;;;;19.54;59.35;97751.00;9985887;29;20110;-74
2022/05/21 02:32:22;;;;;;;1.23;0.55;;;;;;;19.32;58.58;97745.34;10010263;29;20046;-74
2022/05/21 02:43:23;;;;;;;2.25;0.50;;;;;;;19.03;57.95;97761.38;10019472;29;20501;-77
2022/05/21 02:48:44;;;;;;;1.33;0.50;;;;;;;18.95;57.65;97780.16;10060088;29;20045;-74
2022/05/21 02:54:06;;;;;;;3.17;0.60;;;;;;;18.93;57.44;97777.25;10047518;29;20069;-76
2022/05/21 02:59:29;;;;;;;2.80;0.40;;;;;;;18.92;57.05;97793.50;10060229;29;20120;-75
2022/05/21 03:04:50;;;;;;;1.37;0.40;;;;;;;18.87;56.77;97791.91;10047370;29;20049;-76
2022/05/21 03:10:20;;;;;;;2.13;0.40;;;;;;;18.80;56.25;97793.06;10047387;29;20049;-76
2022/05/21 03:15:42;;;;;;;1.67;0.40;;;;;;;18.66;56.37;97790.44;10060148;29;20052;-76
2022/05/21 03:21:03;;;;;;;3.42;0.55;;;;;;;18.57;55.99;97806.34;10059541;29;20041;-76
2022/05/21 03:26:24;;;;;;;1.25;0.40;;;;;;;18.53;55.74;97811.16;10059493;29;20487;-76
2022/05/21 03:31:45;;;;;;;0.70;0.30;;;;;;;18.41;55.56;97822.69;10047020;29;20385;-76
2022/05/21 03:37:06;;;;;;;3.50;0.40;;;;;;;18.42;55.46;97835.44;10046692;29;20545;-76
2022/05/21 03:42:27;;;;;;;0.95;0.30;;;;;;;18.47;55.22;97853.31;10046658;29;20062;-76
2022/05/21 03:47:48;;;;;;;0.93;0.25;;;;;;;18.49;54.71;97854.09;10033755;29;20461;-76
2022/05/21 03:53:10;;;;;;;2.80;0.57;;;;;;;18.47;54.41;97864.59;10019889;29;20082;-76
2022/05/21 03:58:30;;;;;;;2.30;0.40;;;;;;;18.43;54.12;97876.50;10033014;29;20057;-76
2022/05/21 04:03:54;;;;;;;2.42;0.40;;;;;;;18.41;53.87;97882.03;10053366;29;20051;-76
2022/05/21 04:09:15;;;;;;;2.65;0.28;;;;;;;18.62;53.52;97886.38;10069077;29;20496;-74
2022/05/21 04:14:37;;;;;;;2.42;0.40;;;;;;;18.77;53.22;97894.06;10070872;29;20484;-75
2022/05/21 04:19:58;;;;;;;1.50;0.45;;;;;;;18.80;52.18;97900.50;10083543;29;20049;-76
2022/05/21 04:25:19;;;;;;;2.03;0.30;;;;;;;18.91;52.06;97919.31;10057581;29;20049;-73
2022/05/21 04:30:40;;;;;;;2.67;0.30;;;;;;;19.07;51.86;97919.91;10057349;29;20063;-73
2022/05/21 04:36:18;;;;;;;2.35;0.50;;;;;;;19.26;51.55;97920.59;10069865;29;20097;-73
2022/05/21 04:41:39;;;;;;;1.10;0.45;;;;;;;19.53;51.10;97934.31;10074892;29;20416;-73
2022/05/21 04:47:00;;;;;;;1.42;0.60;;;;;;;19.55;50.89;97940.03;10069898;29;20444;-73
2022/05/21 04:52:21;;;;;;;1.25;0.60;;;;;;;19.47;50.20;97945.41;10057257;29;20470;-75
2022/05/21 04:57:42;;;;;;;2.08;0.52;;;;;;;19.18;50.68;97954.97;10030918;29;20046;-74
2022/05/21 05:03:03;;;;;;;1.20;0.65;;;;;;;19.34;50.27;97966.16;10019110;29;20054;-77
2022/05/21 05:08:24;;;;;;;1.27;0.60;;;;;;;19.60;50.10;97961.50;10050948;29;20481;-73
2022/05/21 05:13:45;;;;;;;3.08;0.50;;;;;;;19.90;49.86;97967.47;10051176;29;20045;-73
2022/05/21 05:19:06;;;;;;;3.25;0.85;;;;;;;20.32;49.31;97958.94;10050862;29;20049;-74
2022/05/21 05:24:26;;;;;;;2.65;0.50;;;;;;;20.93;47.67;97957.31;10051004;29;20389;-74
2022/05/21 05:29:47;;;;;;;1.38;0.45;;;;;;;21.33;46.54;97955.72;10032007;29;20045;-73
2022/05/21 05:35:09;;;;;;;2.28;0.40;;;;;;;21.69;45.28;97975.88;10062878;29;20048;-74
2022/05/21 05:40:32;;;;;;;1.40;0.30;;;;;;;22.20;44.13;97962.31;10061677;29;20068;-79
2022/05/21 05:45:58;;;;;;;0.98;0.30;;;;;;;23.39;42.89;97975.03;10063474;29;20511;-76
2022/05/21 05:51:19;;;;;;;3.38;0.88;;;;;;;31.24;35.37;97989.25;10049388;29;20060;-82
2022/05/21 05:56:43;;;;;;;1.58;0.40;;;;;;;38.53;24.85;97993.97;10061693;29;20403;-82
2022/05/21 06:07:51;;;;;;;2.42;0.40;;;;;;;45.74;15.86;98016.38;10056749;29;20136;-87
2022/05/21 06:13:12;;;;;;;1.45;0.30;;;;;;;48.06;14.14;98010.69;10087215;29;20053;-87
2022/05/21 06:18:33;;;;;;;0.85;0.30;;;;;;;49.34;12.09;98008.22;10069888;29;20445;-84
2022/05/21 06:23:54;;;;;;;1.52;0.20;;;;;;;50.26;10.70;98006.75;10073808;29;20048;-78
2022/05/21 06:29:16;;;;;;;1.88;0.10;;;;;;;50.90;8.46;98005.38;10060993;29;20049;-74
2022/05/21 06:34:37;;;;;;;2.35;0.20;;;;;;;51.96;8.07;98010.19;10099092;29;20048;-76
2022/05/21 06:39:58;;;;;;;3.35;0.20;;;;;;;52.75;6.86;98012.84;10060509;29;20053;-77
2022/05/21 06:45:48;;;;;;;0.57;0.13;;;;;;;52.17;6.60;98020.78;10059496;29;20535;-76
2022/05/21 06:51:09;;;;;;;1.35;0.20;;;;;;;53.57;6.00;98017.13;10082959;29;20112;-78
2022/05/21 06:56:30;;;;;;;0.73;0.13;;;;;;;53.54;4.79;98018.94;10097406;29;20049;-77
2022/05/21 07:01:54;;;;;;;3.10;0.20;;;;;;;53.28;4.89;98014.13;10059137;29;20400;-76
2022/05/21 07:07:35;;;;;;;0.75;0.10;;;;;;;51.53;5.26;98022.50;10084817;29;20041;-77
2022/05/21 07:12:56;;;;;;;0.65;0.20;;;;;;;43.04;8.16;98028.69;10064112;29;20049;-77
2022/05/21 07:18:17;;;;;;;1.30;0.20;;;;;;;37.33;11.01;98030.53;10059416;29;20049;-78
2022/05/21 07:23:38;;;;;;;0.65;0.20;;;;;;;37.26;13.96;98030.03;10071632;29;20049;-79
2022/05/21 07:28:59;;;;;;;1.58;0.20;;;;;;;37.39;12.19;98039.06;10084527;29;20049;-77
2022/05/21 07:34:20;;;;;;;1.83;0.20;;;;;;;36.00;14.40;98046.41;10084194;29;20496;-77
2022/05/21 07:39:41;;;;;;;1.67;0.20;;;;;;;40.96;11.30;98042.91;10071391;29;20045;-78
2022/05/21 07:45:04;;;;;;;1.40;0.17;;;;;;;41.65;10.15;98050.34;10083775;29;20049;-77
2022/05/21 07:50:25;;;;;;;1.25;0.30;;;;;;;38.04;12.46;98045.44;10070932;29;20049;-77
2022/05/21 07:55:51;;;;;;;0.85;0.20;;;;;;;43.31;10.15;98043.19;10096952;29;20492;-77
2022/05/21 08:01:12;;;;;;;2.05;0.20;;;;;;;39.32;10.70;98034.44;10070927;29;20060;-81
2022/05/21 08:06:38;;;;;;;0.63;0.10;;;;;;;41.87;11.61;98048.44;10084095;29;20075;-81
2022/05/21 08:11:59;;;;;;;1.58;0.20;;;;;;;43.27;9.04;98052.25;10083464;29;20476;-79
2022/05/21 08:17:22;;;;;;;0.22;0.10;;;;;;;43.48;9.25;98051.03;10070677;29;20110;-80
2022/05/21 08:28:27;;;;;;;1.52;0.20;;;;;;;45.68;9.47;98051.50;10085576;29;20066;-79
2022/05/21 08:33:48;;;;;;;0.43;0.10;;;;;;;47.81;7.84;98046.72;10070132;29;20400;-79
2022/05/21 08:39:09;;;;;;;0.98;0.10;;;;;;;49.10;6.42;98045.84;10070799;29;20073;-79
2022/05/21 08:44:42;;;;;;;0.68;0.20;;;;;;;47.64;6.50;98047.31;10077509;29;20057;-79
2022/05/21 08:50:13;;;;;;;1.45;0.20;;;;;;;52.45;4.93;98049.38;10065370;29;20080;-81
2022/05/21 08:56:14;;;;;;;3.60;0.28;;;;;;;53.23;3.80;98033.31;10094936;29;20140;-84
2022/05/21 09:01:40;;;;;;;2.33;0.45;;;;;;;54.88;3.88;98045.72;10077960;29;20056;-84
2022/05/21 09:07:12;;;;;;;1.38;0.30;;;;;;;50.53;4.85;98031.09;10076876;29;20123;-79
2022/05/21 09:12:52;;;;;;;1.55;0.30;;;;;;;52.52;4.98;98041.22;10089804;29;20091;-81
2022/05/21 09:18:41;;;;;;;1.63;0.40;;;;;;;54.70;3.71;98033.47;10074817;29;20065;-79
2022/05/21 09:24:08;;;;;;;1.55;0.50;;;;;;;55.31;3.12;98044.69;10089516;29;20045;-78
2022/05/21 09:29:42;;;;;;;0.77;0.30;;;;;;;50.40;3.62;98043.41;10078164;29;20049;-79
2022/05/21 09:35:18;;;;;;;0.93;0.20;;;;;;;50.05;4.93;98037.56;10060947;29;20095;-80
2022/05/21 09:40:39;;;;;;;2.13;0.20;;;;;;;47.12;5.23;98052.06;10089137;29;20053;-83
2022/05/21 09:46:32;;;;;;;0.95;0.20;;;;;;;46.43;6.80;98037.25;10076064;29;20049;-81
2022/05/21 09:52:08;;;;;;;1.20;0.20;;;;;;;44.69;7.95;98036.78;10074001;29;20065;-84
2022/05/21 09:57:39;;;;;;;0.23;0.10;;;;;;;45.93;6.99;98034.16;10088015;29;20053;-79
2022/05/21 10:03:02;;;;;;;1.33;0.40;;;;;;;43.65;8.28;98039.72;10087775;29;20309;-79
2022/05/21 10:14:21;;;;;;;2.20;1.25;;;;;;;51.71;4.66;98043.84;10100336;29;20072;-81
2022/05/21 10:19:54;;;;;;;0.50;0.30;;;;;;;52.32;3.90;98037.94;10087538;29;20053;-80
2022/05/21 10:25:18;;;;;;;2.00;0.20;;;;;;;49.58;5.15;98023.88;10087104;29;20051;-80
2022/05/21 10:31:02;;;;;;;1.13;0.52;;;;;;;52.77;3.42;98033.50;10087071;29;20053;-83
2022/05/21 10:36:56;;;;;;;1.35;1.10;;;;;;;54.21;2.68;98020.81;10099723;29;20158;-81
2022/05/21 10:42:26;;;;;;;2.05;1.20;;;;;;;54.85;2.23;98000.41;10055829;29;20556;-81
2022/05/21 10:48:28;;;;;;;1.05;0.30;;;;;;;50.91;3.67;98026.88;10099309;29;20077;-81
2022/05/21 10:54:02;;;;;;;0.55;0.17;;;;;;;52.26;3.54;98021.38;10086159;29;20408;-81
2022/05/21 10:59:36;;;;;;;2.00;0.10;;;;;;;49.63;3.19;98023.53;10098536;29;20049;-79
2022/05/21 11:05:32;;;;;;;1.02;0.10;;;;;;;42.50;6.99;98001.69;10099184;29;20056;-80
2022/05/21 11:11:25;;;;;;;0.55;0.10;;;;;;;38.81;8.71;97997.94;10070177;29;20061;-81
2022/05/21 11:17:03;;;;;;;1.05;0.20;;;;;;;36.55;10.26;98003.31;10072272;29;20059;-84
2022/05/21 11:22:34;;;;;;;0.80;0.10;;;;;;;35.17;11.66;98000.06;10084893;29;20065;-82
2022/05/21 11:27:59;;;;;;;1.48;0.10;;;;;;;33.79;12.93;98006.94;10084624;29;20041;-80
2022/05/21 11:39:12;;;;;;;1.27;0.30;;;;;;;33.01;13.59;97986.75;10086795;29;20047;-77
2022/05/21 11:44:55;;;;;;;1.17;0.10;;;;;;;32.70;13.66;97986.53;10084111;29;20064;-79
2022/05/21 11:50:27;;;;;;;2.20;0.10;;;;;;;32.65;14.20;97994.56;10049462;29;20078;-79
2022/05/21 11:56:03;;;;;;;1.17;0.20;;;;;;;32.30;14.21;97982.13;10045801;29;20050;-79
2022/05/21 12:01:37;;;;;;;0.57;0.10;;;;;;;31.89;14.29;97982.72;10045507;29;20132;-79
2022/05/21 12:06:58;;;;;;;0.93;0.28;;;;;;;31.29;14.92;97994.25;10058521;29;20049;-81
2022/05/21 12:12:23;;;;;;;;;;;;;;;31.18;14.67;97987.13;10032903;29;20045;-79
2022/05/21 12:17:57;;;;;;;1.15;0.17;;;;;;;31.16;14.86;97986.41;10057316;29;19980;-79
2022/05/21 12:23:33;;;;;;;1.15;0.20;;;;;;;31.10;14.84;97977.84;10032400;29;20058;-84
2022/05/21 12:29:09;;;;;;;2.10;0.20;;;;;;;30.91;15.23;97980.91;10057914;29;20102;-85
2022/05/21 12:34:46;;;;;;;0.82;0.20;;;;;;;30.58;15.46;97979.75;10058158;29;20053;-85
2022/05/21 12:40:34;;;;;;;2.10;0.20;;;;;;;30.56;15.77;97979.75;10032095;29;20065;-85
2022/05/21 12:45:55;;;;;;;1.10;0.20;;;;;;;30.31;15.85;97979.97;10019021;29;20038;-82
2022/05/21 12:51:43;;;;;;;2.33;0.10;;;;;;;30.03;16.38;97968.63;10019380;29;20064;-83
2022/05/21 12:57:12;;;;;;;2.22;0.13;;;;;;;29.82;16.62;97973.75;10031433;29;20050;-77
2022/05/21 13:02:52;;;;;;;0.90;0.20;;;;;;;29.32;17.52;97981.84;10031537;29;20046;-77
2022/05/21 13:08:13;;;;;;;0.73;0.13;;;;;;;28.73;17.11;97976.19;10031537;29;20485;-77
2022/05/21 13:13:36;;;;;;;2.88;0.35;;;;;;;28.51;17.38;97974.06;10044052;29;20489;-76
2022/05/21 13:19:28;;;;;;;4.90;0.30;;;;;;;28.50;17.05;97971.91;10031221;29;20045;-76
2022/05/21 13:25:15;;;;;;;1.17;0.20;;;;;;;27.79;17.65;97974.66;10029664;29;20065;-79
2022/05/21 13:30:38;;;;;;;3.40;0.20;;;;;;;27.47;17.94;97975.94;10037680;29;20496;-76
2022/05/21 13:36:05;;;;;;;1.90;0.10;;;;;;;27.45;18.09;97984.53;10050720;29;20485;-81
2022/05/21 13:41:40;;;;;;;1.23;0.20;;;;;;;27.56;18.13;97977.41;10037116;29;20131;-76
2022/05/21 13:47:09;;;;;;;0.98;0.30;;;;;;;27.73;18.27;97983.25;10024315;29;20452;-78
2022/05/21 13:52:32;;;;;;;2.13;0.20;;;;;;;27.72;18.87;97967.47;10036904;29;20052;-74
2022/05/21 13:57:55;;;;;;;0.82;0.20;;;;;;;27.61;18.71;97973.16;10050107;29;20053;-74
2022/05/21 14:03:25;;;;;;;1.38;0.20;;;;;;;27.60;19.35;97974.59;10036470;29;20053;-74
2022/05/21 14:08:50;;;;;;;0.82;0.20;;;;;;;27.79;19.58;97968.91;10049283;29;20041;-74
2022/05/21 14:14:12;;;;;;;1.70;0.25;;;;;;;28.23;19.21;97963.25;10053932;29;20412;-75
2022/05/21 14:19:33;;;;;;;1.80;0.20;;;;;;;28.24;19.16;97976.19;10074143;29;20500;-74
2022/05/21 14:24:53;;;;;;;2.88;0.20;;;;;;;28.02;19.25;97961.09;10061033;29;20433;-75
2022/05/21 14:30:31;;;;;;;1.47;0.20;;;;;;;28.14;19.10;97984.78;10074474;29;20101;-74
2022/05/21 14:35:53;;;;;;;1.65;0.20;;;;;;;27.99;18.78;97977.59;10061706;29;20049;-75
2022/05/21 14:41:31;;;;;;;1.95;0.28;;;;;;;27.64;19.39;97971.72;10060782;29;20057;-79
2022/05/21 14:52:53;;;;;;;1.73;0.40;;;;;;;28.37;18.93;97964.72;10064743;29;20057;-76
2022/05/21 14:58:13;;;;;;;1.30;0.20;;;;;;;27.87;18.60;97960.34;10078029;29;20052;-75
2022/05/21 15:03:33;;;;;;;0.70;0.20;;;;;;;27.39;18.92;97958.72;10060106;29;20077;-77
2022/05/21 15:08:56;;;;;;;2.15;0.40;;;;;;;26.95;19.36;97971.38;10072918;29;20076;-77
2022/05/21 15:14:17;;;;;;;0.93;0.15;;;;;;;26.91;19.77;97959.88;10059889;29;20053;-77
2022/05/21 15:19:38;;;;;;;0.77;0.20;;;;;;;26.87;19.76;97959.84;10059690;29;20044;-77
2022/05/21 15:25:00;;;;;;;2.67;0.30;;;;;;;26.62;19.97;97961.81;10059072;29;20041;-77
2022/05/21 15:30:23;;;;;;;1.13;0.20;;;;;;;26.76;19.91;97958.34;10059378;29;20049;-75
2022/05/21 15:35:44;;;;;;;2.77;0.20;;;;;;;26.52;20.18;97956.72;10059160;29;20048;-75
2022/05/21 15:41:09;;;;;;;2.38;0.30;;;;;;;26.43;20.46;97955.22;10058528;29;20090;-77
2022/05/21 15:46:30;;;;;;;1.88;0.20;;;;;;;26.51;20.70;97955.31;10058464;29;20056;-79
2022/05/21 15:51:51;;;;;;;1.73;0.20;;;;;;;26.67;20.25;97963.31;10057610;29;20056;-75
2022/05/21 15:57:12;;;;;;;2.13;0.22;;;;;;;26.49;20.48;97963.16;10071130;29;20097;-75
2022/05/21 16:02:36;;;;;;;1.10;0.30;;;;;;;26.12;21.03;97954.22;10057793;29;20399;-75
2022/05/21 16:08:00;;;;;;;1.10;0.20;;;;;;;26.02;21.40;97951.28;10059439;29;20041;-76
2022/05/21 16:13:22;;;;;;;1.55;0.40;;;;;;;25.98;21.65;97953.38;10059232;29;20496;-76
2022/05/21 16:18:43;;;;;;;1.73;0.30;;;;;;;25.63;21.83;97950.84;10058064;29;20086;-77
2022/05/21 16:24:04;;;;;;;2.58;0.30;;;;;;;25.28;22.46;97968.97;10057632;29;20449;-75
2022/05/21 16:29:25;;;;;;;1.42;0.30;;;;;;;24.91;22.92;97962.03;10057921;29;20045;-76
2022/05/21 16:34:46;;;;;;;1.70;0.30;;;;;;;24.49;23.29;97959.97;10057412;29;20049;-77
2022/05/21 16:40:09;;;;;;;2.05;0.30;;;;;;;24.20;23.79;97965.16;10057748;29;20069;-79
2022/05/21 16:45:29;;;;;;;2.22;0.40;;;;;;;23.99;23.93;97958.41;10070375;29;20041;-74
2022/05/21 16:50:50;;;;;;;1.52;0.22;;;;;;;23.89;24.60;97954.66;10082875;29;20056;-75
2022/05/21 16:56:11;;;;;;;1.25;0.20;;;;;;;23.82;25.08;97964.47;10069789;29;20052;-77
2022/05/21 17:01:32;;;;;;;0.95;0.30;;;;;;;23.63;25.41;97958.44;10059602;29;20480;-76
2022/05/21 17:06:52;;;;;;;4.03;0.30;;;;;;;23.57;25.56;97951.88;10077292;29;20101;-75
2022/05/21 17:12:14;;;;;;;3.67;0.25;;;;;;;23.28;26.01;97956.28;10064068;29;20048;-74
2022/05/21 17:17:35;;;;;;;1.02;0.20;;;;;;;23.14;26.29;97954.56;10063754;29;20488;-74
2022/05/21 17:22:57;;;;;;;1.07;0.20;;;;;;;23.04;26.42;97960.03;10063955;29;20506;-74
2022/05/21 17:33:57;;;;;;;1.85;0.30;;;;;;;22.90;27.11;97953.31;10080918;29;20052;-76
2022/05/21 17:39:17;;;;;;;1.10;0.30;;;;;;;22.83;27.26;97970.22;10075626;29;20049;-76
2022/05/21 17:44:38;;;;;;;2.45;0.30;;;;;;;22.73;27.63;97961.47;10036998;29;20449;-75
2022/05/21 17:50:00;;;;;;;3.78;0.30;;;;;;;22.49;28.29;97967.31;10063850;29;20045;-76
2022/05/21 17:55:27;;;;;;;4.60;0.40;;;;;;;22.07;28.57;97966.25;10037722;29;20049;-74
2022/05/21 18:00:50;;;;;;;1.75;0.38;;;;;;;21.87;28.87;97975.66;10050072;29;20048;-76
2022/05/21 18:06:11;;;;;;;3.05;1.10;;;;;;;21.74;29.68;97973.88;10049567;29;20116;-73
2022/05/21 18:11:32;;;;;;;1.95;0.35;;;;;;;21.65;29.70;97967.25;10048409;29;20056;-74
2022/05/21 18:22:52;;;;;;;3.25;0.40;;;;;;;21.40;30.69;97968.69;10048746;29;20045;-75
2022/05/21 18:28:13;;;;;;;3.47;0.40;;;;;;;21.41;31.14;97978.66;10048865;29;20057;-74
2022/05/21 18:33:34;;;;;;;2.83;0.30;;;;;;;21.31;31.20;97969.84;10048403;29;20045;-74
2022/05/21 18:38:54;;;;;;;1.98;0.30;;;;;;;21.22;31.66;97973.81;10061027;29;20052;-74
2022/05/21 18:44:16;;;;;;;5.15;0.52;;;;;;;21.17;31.32;97972.25;10083692;29;20065;-74
2022/05/21 18:49:36;;;;;;;5.80;0.60;;;;;;;21.11;32.11;97980.56;10073415;29;20108;-75
2022/05/21 18:54:57;;;;;;;6.70;0.50;;;;;;;21.09;31.88;97977.69;10072832;29;20048;-74
2022/05/21 19:00:19;;;;;;;2.03;0.63;;;;;;;21.04;32.23;97978.97;10073161;29;20045;-74
2022/05/21 19:05:40;;;;;;;2.13;0.40;;;;;;;20.95;32.41;97974.44;10073255;29;20049;-75
2022/05/21 19:11:04;;;;;;;3.17;0.47;;;;;;;20.85;32.71;97977.69;10085483;29;20060;-74
2022/05/21 19:16:29;;;;;;;4.10;0.43;;;;;;;20.61;32.90;97976.91;10073145;29;20076;-74
2022/05/21 19:21:54;;;;;;;2.30;0.55;;;;;;;20.33;33.07;97988.03;10084794;29;20052;-75
2022/05/21 19:27:15;;;;;;;2.53;0.38;;;;;;;20.15;33.13;97997.34;10071592;29;20060;-74
2022/05/21 19:32:36;;;;;;;6.43;0.75;;;;;;;19.96;33.21;97993.16;10071904;29;20097;-75
2022/05/21 19:37:56;;;;;;;1.42;0.50;;;;;;;19.81;33.52;97999.00;10071581;29;20045;-74
2022/05/21 19:43:18;;;;;;;1.90;0.38;;;;;;;19.65;33.88;97999.88;10098755;29;20067;-75
2022/05/21 19:48:39;;;;;;;1.58;0.40;;;;;;;19.53;33.65;98007.19;10071772;29;20102;-74
2022/05/21 19:54:00;;;;;;;5.57;0.60;;;;;;;19.44;33.98;98009.00;10083938;29;20040;-74
2022/05/21 19:59:21;;;;;;;1.73;0.40;;;;;;;19.41;33.94;98013.13;10058145;29;20511;-75
2022/05/21 20:04:43;;;;;;;3.90;0.50;;;;;;;19.33;33.86;98015.66;10058760;29;20053;-75
2022/05/21 20:10:04;;;;;;;3.33;0.80;;;;;;;19.27;33.65;98004.81;10058079;29;20048;-75
2022/05/21 20:15:32;;;;;;;1.95;0.50;;;;;;;19.23;33.57;98001.84;10056128;29;20439;-73
2022/05/21 20:20:53;;;;;;;2.78;0.50;;;;;;;19.20;33.42;97996.75;10036731;29;20528;-75
2022/05/21 20:26:14;;;;;;;2.08;0.63;;;;;;;19.11;33.64;98002.13;10032465;29;20499;-75
2022/05/21 20:31:35;;;;;;;1.50;0.60;;;;;;;19.04;33.75;98000.44;10043751;29;20042;-81
2022/05/21 20:36:56;;;;;;;3.15;0.60;;;;;;;19.05;33.55;98004.72;10035672;29;20049;-80
2022/05/21 20:42:17;;;;;;;2.15;0.80;;;;;;;18.98;33.58;98005.84;10039500;29;20060;-77
2022/05/21 20:53:17;;;;;;;3.25;0.73;;;;;;;18.84;33.54;97999.66;10054481;29;20557;-75
2022/05/21 20:58:38;;;;;;;2.53;0.80;;;;;;;18.75;33.47;98007.09;10093392;29;20485;-75
2022/05/21 21:03:59;;;;;;;3.25;0.60;;;;;;;18.71;33.70;98011.84;10064195;29;20045;-74
2022/05/21 21:09:19;;;;;;;2.35;0.70;;;;;;;18.71;33.78;98017.50;10064031;29;20072;-74
2022/05/21 21:14:40;;;;;;;2.55;1.20;;;;;;;18.68;33.71;98013.13;10077054;29;20052;-75
2022/05/21 21:20:01;;;;;;;3.83;0.70;;;;;;;18.64;33.57;98012.97;10063528;29;20108;-75
2022/05/21 21:25:21;;;;;;;2.00;0.60;;;;;;;18.48;33.69;98021.50;10063398;29;20416;-76
2022/05/21 21:30:42;;;;;;;2.83;0.80;;;;;;;18.40;33.97;98007.75;10089140;29;20105;-75
2022/05/21 21:36:03;;;;;;;3.63;0.73;;;;;;;18.30;34.05;98016.53;10102814;29;20056;-75
2022/05/21 21:41:24;;;;;;;3.95;0.80;;;;;;;18.15;33.97;97994.75;10075763;29;20101;-74
2022/05/21 21:46:45;;;;;;;3.72;0.82;;;;;;;18.06;34.31;97998.59;10088521;29;20086;-75
2022/05/21 21:52:06;;;;;;;1.48;0.73;;;;;;;17.96;34.36;97998.88;10075692;29;20052;-76
2022/05/21 21:57:26;;;;;;;2.05;0.75;;;;;;;17.82;34.64;97991.91;10062242;29;20049;-75
2022/05/21 22:02:47;;;;;;;3.22;0.73;;;;;;;17.73;34.78;98002.09;10062105;29;20049;-75
2022/05/21 22:08:08;;;;;;;3.08;0.80;;;;;;;17.73;35.04;97996.47;10062246;29;20045;-74
2022/05/21 22:13:29;;;;;;;2.50;0.73;;;;;;;17.71;34.90;98008.41;10069109;29;20097;-75
2022/05/21 22:19:27;;;;;;;2.83;0.80;;;;;;;17.69;35.41;98010.38;10061713;29;20041;-76
2022/05/21 22:24:49;;;;;;;1.73;0.90;;;;;;;17.66;35.40;98011.63;10060701;29;20049;-74
2022/05/21 22:30:10;;;;;;;4.80;1.17;;;;;;;17.68;35.30;98015.31;10074095;29;20400;-74
2022/05/21 22:35:31;;;;;;;3.45;1.00;;;;;;;17.69;35.58;98010.38;10100581;29;20049;-74
2022/05/21 22:40:53;;;;;;;2.78;0.73;;;;;;;17.70;35.55;98006.22;10060602;29;20480;-74
2022/05/21 22:46:16;;;;;;;3.40;0.80;;;;;;;17.71;35.85;97993.56;10086584;29;20060;-75
2022/05/21 22:51:37;;;;;;;3.10;1.00;;;;;;;17.71;35.77;98007.66;10073545;29;20049;-75
2022/05/21 22:56:57;;;;;;;4.20;1.23;;;;;;;17.68;35.75;97983.53;10060206;29;20095;-74
2022/05/21 23:02:18;;;;;;;2.00;0.82;;;;;;;17.60;36.56;97983.16;10088577;23;20060;-74
2022/05/21 23:07:39;;;;;;;3.72;0.98;;;;;;;17.54;36.16;97974.41;10098148;29;20052;-74
2022/05/21 23:12:59;;;;;;;4.90;0.95;;;;;;;17.52;36.56;97974.34;10110711;29;20045;-74
2022/05/21 23:18:23;;;;;;;2.95;0.77;;;;;;;17.44;36.68;97960.59;10110683;29;20040;-74
2022/05/21 23:23:44;;;;;;;4.10;0.98;;;;;;;17.35;36.80;97956.69;10110886;29;20049;-74
2022/05/21 23:29:05;;;;;;;3.53;1.20;;;;;;;17.26;37.11;97960.50;10110445;29;20056;-75
2022/05/21 23:34:25;;;;;;;3.83;1.10;;;;;;;17.24;37.31;97951.97;10110089;29;20052;-75
2022/05/21 23:39:46;;;;;;;2.97;0.90;;;;;;;17.16;37.39;97962.88;10123002;29;20059;-74
2022/05/21 23:45:07;;;;;;;2.13;0.82;;;;;;;17.09;37.49;97955.53;10094712;29;20064;-76
2022/05/21 23:50:28;;;;;;;4.97;0.98;;;;;;;16.99;37.95;97947.34;10096752;29;20055;-76
2022/05/21 23:55:49;;;;;;;3.47;1.10;;;;;;;16.90;37.98;97950.41;10109583;29;20096;-77
